Time;durP1;ratioP1;P1;durP2;ratioP2;P2;SDS_P1;SDS_P2;PMS_P1;PMS_P2;Temp;Humidity;BMP_temperature;BMP_pressure;BME280_temperature;BME280_humidity;BME280_pressure;Samples;Min_cycle;Max_cycle;Signal;HPM_P1;HPM_P2
2023/03/25 00:02:04;;;;;;;;;;;14.20;51.60;;;12.99;52.76;99968.56;12262545;19;20274;-83
2023/03/25 00:20:10;;;;;;;;;;;14.10;51.70;;;12.84;52.83;99978.44;12247588;19;19914;-84
2023/03/25 00:24:16;;;;;;;;;;;14.00;51.60;;;12.74;52.85;99953.88;12252771;19;19954;-85
2023/03/25 00:28:18;;;;;;;;;;;13.90;51.70;;;12.81;52.80;99969.97;12249448;19;19933;-85
2023/03/25 00:32:24;;;;;;;;;;;13.90;51.90;;;12.74;52.94;99961.72;12252658;19;20217;-86
2023/03/25 00:36:25;;;;;;;;;;;13.90;51.80;;;12.69;52.92;99961.28;12257009;19;19934;-85
2023/03/25 00:40:29;;;;;;;;;;;13.80;51.70;;;12.64;52.91;99952.94;12254655;19;19948;-85
2023/03/25 00:44:31;;;;;;;;;;;13.80;51.90;;;12.71;52.95;99975.06;12257176;19;20272;-85
2023/03/25 00:48:33;;;;;;;;;;;13.80;52.10;;;12.44;53.06;99937.88;12251743;19;19933;-85
2023/03/25 00:52:35;;;;;;;;;;;13.90;51.90;;;12.69;52.96;99982.25;12257851;19;19926;-85
2023/03/25 00:56:37;;;;;;;;;;;13.80;52.20;;;12.58;53.09;99976.94;12254094;19;19927;-85
2023/03/25 01:00:39;;;;;;;;;;;13.80;51.90;;;12.62;53.04;99981.03;12252440;19;19921;-85
2023/03/25 01:04:44;;;;;;;;;;;13.80;52.00;;;12.56;53.07;99974.47;12254658;19;19919;-85
2023/03/25 01:08:46;;;;;;;;;;;13.70;52.00;;;12.63;53.04;99980.88;12255288;19;19911;-85
2023/03/25 01:12:47;;;;;;;;;;;13.70;52.20;;;12.63;53.11;99980.06;12256451;19;19974;-85
2023/03/25 01:16:49;;;;;;;;;;;13.80;52.30;;;12.60;53.20;99970.66;12254479;19;19927;-85
2023/03/25 01:20:51;;;;;;;;;;;13.80;52.20;;;12.61;53.07;99968.88;12253228;19;19919;-85
2023/03/25 01:24:52;;;;;;;;;;;13.90;52.10;;;12.63;53.19;99975.66;12256289;19;19942;-85
2023/03/25 01:28:53;;;;;;;;;;;13.70;52.10;;;12.51;53.12;99953.03;12248556;19;19941;-85
2023/03/25 01:32:55;;;;;;;;;;;13.70;52.10;;;12.59;53.18;99960.31;12252438;19;19921;-85
2023/03/25 01:36:57;;;;;;;;;;;13.70;52.00;;;12.45;53.16;99942.16;12250589;19;19930;-85
2023/03/25 01:40:59;;;;;;;;;;;13.70;51.90;;;12.56;53.08;99945.66;12251941;19;19919;-85
2023/03/25 01:45:15;;;;;;;;;;;13.70;51.90;;;12.56;53.10;99943.03;12253833;19;20011;-85
2023/03/25 01:49:22;;;;;;;;;;;13.70;51.90;;;12.51;53.17;99937.31;12251783;19;20391;-84
2023/03/25 01:53:26;;;;;;;;;;;13.70;51.90;;;12.46;53.20;99928.13;12253231;19;19919;-86
2023/03/25 01:57:30;;;;;;;;;;;13.70;51.90;;;12.25;53.24;99902.63;12252340;19;19925;-85
2023/03/25 02:01:32;;;;;;;;;;;13.70;51.90;;;12.47;53.07;99933.25;12256446;19;20258;-85
2023/03/25 02:05:51;;;;;;;;;;;13.60;51.80;;;12.17;53.30;99881.41;12253769;19;19915;-85
2023/03/25 02:09:53;;;;;;;;;;;13.60;51.80;;;12.45;52.96;99931.69;12247496;19;19915;-85
2023/03/25 02:14:03;;;;;;;;;;;13.60;51.80;;;12.38;53.16;99929.53;12248437;19;19919;-86
2023/03/25 02:18:12;;;;;;;;;;;13.60;51.90;;;12.43;53.08;99923.13;12250030;19;20348;-86
2023/03/25 02:22:26;;;;;;;;;;;13.60;51.90;;;12.42;53.16;99921.44;12255555;19;20332;-86
2023/03/25 02:26:35;;;;;;;;;;;13.50;51.80;;;12.28;53.21;99894.53;12256076;19;20272;-85
2023/03/25 02:31:08;;;;;;;;;;;13.50;51.90;;;12.37;53.09;99904.31;12252495;19;19918;-86
2023/03/25 02:35:24;;;;;;;;;;;13.50;52.30;;;12.26;53.37;99874.66;12253284;19;19974;-85
2023/03/25 02:39:25;;;;;;;;;;;13.50;52.10;;;12.33;53.20;99892.41;12246815;19;19922;-85
2023/03/25 02:43:33;;;;;;;;;;;13.50;52.10;;;12.22;53.26;99866.22;12266883;19;19936;-85
2023/03/25 02:47:42;;;;;;;;;;;13.50;52.10;;;12.23;53.38;99870.47;12260137;19;19915;-85
2023/03/25 02:51:53;;;;;;;;;;;13.50;52.10;;;12.24;53.24;99864.31;12262345;19;20328;-86
2023/03/25 02:55:59;;;;;;;;;;;13.50;52.20;;;12.22;53.22;99858.34;12261986;19;19931;-85
2023/03/25 03:00:06;;;;;;;;;;;13.50;52.40;;;12.23;53.33;99849.53;12260427;19;19922;-85
2023/03/25 03:04:08;;;;;;;;;;;13.50;52.40;;;12.34;53.22;99856.56;12263748;19;19915;-85
2023/03/25 03:08:13;;;;;;;;;;;13.70;52.30;;;12.36;53.32;99868.59;12257539;19;20629;-85
2023/03/25 03:12:34;;;;;;;;;;;13.50;52.30;;;12.12;53.31;99828.59;12264621;19;19915;-85
2023/03/25 03:16:41;;;;;;;;;;;13.50;52.20;;;12.37;53.30;99865.06;12259379;19;19926;-85
2023/03/25 03:21:05;;;;;;;;;;;13.50;52.30;;;12.07;53.51;99813.25;12259712;19;19918;-85
2023/03/25 03:25:13;;;;;;;;;;;13.50;52.30;;;12.38;53.42;99858.84;12261519;19;20332;-84
2023/03/25 03:29:25;;;;;;;;;;;13.50;52.20;;;12.37;53.57;99859.00;12259334;19;19927;-84
2023/03/25 03:33:35;;;;;;;;;;;13.60;52.40;;;12.06;53.59;99814.19;12260697;19;19948;-85
2023/03/25 03:37:42;;;;;;;;;;;13.50;52.30;;;12.31;53.43;99852.44;12256911;19;19923;-86
2023/03/25 03:41:46;;;;;;;;;;;13.60;52.40;;;12.36;53.60;99867.78;12259749;19;19911;-85
2023/03/25 03:45:51;;;;;;;;;;;13.60;52.50;;;12.37;53.65;99866.84;12259498;19;19930;-85
2023/03/25 03:49:57;;;;;;;;;;;13.60;52.40;;;12.39;53.55;99864.91;12252978;19;20415;-85
2023/03/25 03:54:12;;;;;;;;;;;13.60;52.40;;;12.44;53.61;99881.09;12259300;19;19911;-85
2023/03/25 03:58:27;;;;;;;;;;;13.60;52.30;;;12.37;53.80;99867.66;12254987;19;19911;-85
2023/03/25 04:02:52;;;;;;;;;;;13.60;52.40;;;12.33;53.74;99868.00;12259557;19;19926;-85
2023/03/25 04:07:16;;;;;;;;;;;13.70;52.60;;;12.44;53.63;99882.91;12257718;19;19949;-85
2023/03/25 04:11:22;;;;;;;;;;;13.60;52.60;;;12.42;53.53;99884.78;12258498;19;19915;-85
2023/03/25 04:15:24;;;;;;;;;;;13.70;52.60;;;12.40;53.71;99885.75;12257602;19;19919;-85
2023/03/25 04:19:26;;;;;;;;;;;13.70;52.60;;;12.30;53.70;99861.22;12254869;19;19941;-85
2023/03/25 04:23:28;;;;;;;;;;;13.60;52.60;;;12.39;53.70;99876.25;12259045;19;19978;-85
2023/03/25 04:27:31;;;;;;;;;;;13.60;52.60;;;12.40;53.77;99874.47;12254967;19;19918;-85
2023/03/25 04:31:33;;;;;;;;;;;13.60;52.60;;;12.36;53.68;99873.84;12257450;19;19919;-85
2023/03/25 04:35:34;;;;;;;;;;;13.60;52.60;;;12.21;53.79;99856.69;12257017;19;19923;-85
2023/03/25 04:39:36;;;;;;;;;;;13.60;52.60;;;12.43;53.75;99879.47;12250375;19;20375;-85
2023/03/25 04:43:44;;;;;;;;;;;13.60;52.60;;;12.44;53.60;99882.91;12257774;19;19918;-84
2023/03/25 04:47:47;;;;;;;;;;;13.70;52.60;;;12.45;53.68;99874.09;12254066;19;19922;-85
2023/03/25 04:51:51;;;;;;;;;;;13.70;52.60;;;12.51;53.72;99881.50;12252950;19;19922;-86
2023/03/25 04:55:54;;;;;;;;;;;13.80;52.70;;;12.50;53.79;99878.03;12256106;19;19929;-85
2023/03/25 04:59:55;;;;;;;;;;;13.70;52.70;;;12.52;53.79;99883.16;12253035;19;19915;-85
2023/03/25 05:04:03;;;;;;;;;;;13.70;52.60;;;12.51;53.80;99874.47;12253204;19;20278;-85
2023/03/25 05:08:06;;;;;;;;;;;13.70;52.60;;;12.51;53.78;99879.69;12251825;19;19919;-85
2023/03/25 05:12:10;;;;;;;;;;;13.70;52.60;;;12.50;53.75;99874.56;12253189;19;19915;-85
2023/03/25 05:16:11;;;;;;;;;;;13.70;52.60;;;12.42;53.75;99869.91;12251849;19;19979;-85
2023/03/25 05:20:13;;;;;;;;;;;13.70;52.60;;;12.47;53.77;99878.25;12252219;19;19919;-85
2023/03/25 05:24:15;;;;;;;;;;;13.70;52.60;;;12.48;53.71;99877.31;12255416;19;19906;-85
2023/03/25 05:28:17;;;;;;;;;;;13.70;52.70;;;12.45;53.93;99874.09;12252059;19;19929;-85
2023/03/25 05:32:19;;;;;;;;;;;13.70;52.60;;;12.37;53.75;99865.06;12253297;19;19919;-85
2023/03/25 05:36:23;;;;;;;;;;;13.60;52.60;;;12.09;53.84;99815.75;12253534;19;19915;-85
2023/03/25 05:40:25;;;;;;;;;;;13.70;52.70;;;12.42;53.71;99874.31;12251134;19;19950;-85
2023/03/25 05:44:27;;;;;;;;;;;13.60;52.60;;;12.31;53.94;99860.28;12252005;19;20364;-86
2023/03/25 05:48:31;;;;;;;;;;;13.60;52.50;;;12.40;53.89;99872.66;12249940;19;19915;-85
2023/03/25 05:52:35;;;;;;;;;;;13.60;52.50;;;12.13;53.87;99838.97;12254550;19;19922;-85
2023/03/25 05:56:37;;;;;;;;;;;13.60;52.50;;;12.38;53.71;99887.66;12251264;19;20373;-85
2023/03/25 06:00:39;;;;;;;;;;;13.60;52.60;;;12.39;53.97;99897.19;12249066;19;19934;-87
2023/03/25 06:04:40;;;;;;;;;;;13.60;52.60;;;12.37;54.00;99885.16;12247351;19;19914;-87
2023/03/25 06:08:43;;;;;;;;;;;13.60;52.70;;;12.39;54.08;99884.09;12246725;19;19922;-87
2023/03/25 06:12:46;;;;;;;;;;;13.60;52.70;;;12.20;54.04;99870.72;12246791;19;19938;-87
2023/03/25 06:16:48;;;;;;;;;;;13.70;52.60;;;12.39;53.96;99891.97;12259809;19;19958;-87
2023/03/25 06:20:56;;;;;;;;;;;13.70;52.70;;;12.45;54.18;99902.88;12256123;19;19930;-87
2023/03/25 06:24:58;;;;;;;;;;;13.70;52.80;;;12.46;53.99;99910.63;12261692;19;19914;-87
2023/03/25 06:29:00;;;;;;;;;;;13.70;52.70;;;12.33;54.01;99881.09;12258615;19;19919;-88
2023/03/25 06:33:04;;;;;;;;;;;13.80;52.60;;;12.27;54.00;99879.78;12260660;19;20229;-87
2023/03/25 06:37:06;;;;;;;;;;;13.80;52.70;;;12.24;54.10;99869.56;12258357;19;19922;-87
2023/03/25 06:41:07;;;;;;;;;;;13.80;52.60;;;12.54;54.09;99920.53;12251052;19;20348;-88
2023/03/25 06:45:10;;;;;;;;;;;13.80;52.70;;;12.53;53.99;99921.47;12255436;19;19915;-87
2023/03/25 06:49:24;;;;;;;;;;;13.80;52.60;;;12.47;53.97;99908.84;12251411;19;19934;-89
2023/03/25 06:53:30;;;;;;;;;;;13.80;52.50;;;12.54;54.17;99921.34;12248362;19;19921;-87
2023/03/25 06:57:31;;;;;;;;;;;13.80;52.70;;;12.47;54.17;99914.91;12256586;19;20255;-89
2023/03/25 07:01:36;;;;;;;;;;;13.80;52.60;;;12.57;54.08;99921.13;12261079;19;19922;-91
2023/03/25 07:05:39;;;;;;;;;;;13.90;52.60;;;12.60;54.11;99920.88;12257973;19;19917;-88
2023/03/25 07:09:41;;;;;;;;;;;13.90;52.70;;;12.59;54.06;99915.78;12250940;19;19915;-89
2023/03/25 07:13:42;;;;;;;;;;;13.90;52.60;;;12.56;54.13;99903.75;12258093;19;19911;-89
2023/03/25 07:17:47;;;;;;;;;;;13.90;52.70;;;12.68;54.05;99920.31;12253358;19;19930;-89
2023/03/25 07:21:49;;;;;;;;;;;13.90;52.70;;;12.72;54.16;99923.50;12254724;19;19910;-88
2023/03/25 07:25:51;;;;;;;;;;;13.90;53.00;;;12.71;54.13;99914.81;12254039;19;19926;-90
2023/03/25 07:29:52;;;;;;;;;;;14.00;52.70;;;12.79;54.11;99924.72;12250198;19;19911;-90
2023/03/25 07:33:54;;;;;;;;;;;14.00;53.10;;;12.78;54.24;99923.88;12251927;19;20268;-89
2023/03/25 07:37:55;;;;;;;;;;;14.00;53.00;;;12.79;54.24;99915.06;12254365;19;19942;-90
2023/03/25 07:41:57;;;;;;;;;;;14.10;53.00;;;12.78;54.30;99917.81;12253314;19;19923;-89
2023/03/25 07:46:24;;;;;;;;;;;14.10;53.10;;;12.75;54.19;99899.72;12248823;19;19923;-90
2023/03/25 07:50:26;;;;;;;;;;;14.10;52.90;;;12.99;54.38;99928.41;12251724;19;19934;-89
2023/03/25 07:54:27;;;;;;;;;;;14.20;52.90;;;12.69;54.26;99872.22;12259458;19;19941;-89
2023/03/25 07:58:29;;;;;;;;;;;14.30;52.90;;;12.85;54.28;99887.53;12250123;19;20023;-88
2023/03/25 08:02:31;;;;;;;;;;;14.30;52.80;;;13.20;54.42;99931.94;12248996;19;19914;-88
2023/03/25 08:06:32;;;;;;;;;;;14.50;53.00;;;13.35;54.44;99937.00;12250248;19;19914;-88
2023/03/25 08:10:34;;;;;;;;;;;14.60;53.00;;;13.45;54.24;99937.94;12252082;19;19943;-88
2023/03/25 08:14:35;;;;;;;;;;;14.70;53.00;;;13.56;54.37;99939.69;12251065;19;19915;-88
2023/03/25 08:18:37;;;;;;;;;;;14.80;52.90;;;13.48;54.35;99922.78;12249517;19;19914;-88
2023/03/25 08:22:39;;;;;;;;;;;14.90;52.70;;;13.47;54.39;99904.53;12249437;19;19914;-88
2023/03/25 08:26:42;;;;;;;;;;;15.00;52.50;;;13.34;54.39;99880.22;12257570;19;19997;-93
2023/03/25 08:30:43;;;;;;;;;;;15.00;52.40;;;13.79;54.54;99937.81;12275830;19;19923;-93
2023/03/25 08:34:45;;;;;;;;;;;15.10;52.50;;;13.80;54.40;99923.72;12274561;19;20328;-93
2023/03/25 08:38:47;;;;;;;;;;;15.20;52.40;;;13.62;54.34;99887.56;12264015;19;19919;-92
2023/03/25 08:42:49;;;;;;;;;;;15.20;52.40;;;14.01;54.50;99921.13;12264966;19;20328;-92
2023/03/25 08:46:50;;;;;;;;;;;15.30;52.30;;;14.08;54.31;99931.00;12250514;19;19954;-88
2023/03/25 08:50:52;;;;;;;;;;;15.40;52.00;;;14.01;54.25;99916.72;12238299;19;19926;-89
2023/03/25 08:54:53;;;;;;;;;;;15.40;51.80;;;14.04;54.16;99924.38;12246507;19;19926;-87
2023/03/25 08:58:55;;;;;;;;;;;15.40;51.90;;;14.09;54.37;99922.16;12243935;19;20328;-87
2023/03/25 09:02:57;;;;;;;;;;;15.40;51.90;;;14.14;54.29;99930.50;12247620;19;19937;-89
2023/03/25 09:06:59;;;;;;;;;;;15.40;51.80;;;14.17;54.33;99909.22;12221404;19;20113;-89
2023/03/25 09:11:01;;;;;;;;;;;15.50;51.90;;;14.00;54.35;99870.44;12143744;19;19929;-88
2023/03/25 09:15:03;;;;;;;;;;;15.60;51.80;;;14.36;54.26;99924.28;12157309;19;19923;-89
2023/03/25 09:19:05;;;;;;;;;;;15.70;51.80;;;14.46;54.21;99911.22;12245487;19;19919;-88
2023/03/25 09:23:08;;;;;;;;;;;15.80;51.70;;;14.51;54.22;99916.09;12247605;19;19918;-90
2023/03/25 09:27:09;;;;;;;;;;;15.80;51.60;;;14.38;54.24;99898.72;12244391;19;19919;-89
2023/03/25 09:31:11;;;;;;;;;;;15.90;51.50;;;14.46;54.04;99919.09;12247709;19;19930;-89
2023/03/25 09:35:12;;;;;;;;;;;15.90;51.20;;;14.49;54.13;99905.69;12249748;19;19910;-91
2023/03/25 09:39:14;;;;;;;;;;;15.90;51.50;;;14.55;54.01;99928.03;12243824;19;19935;-91
2023/03/25 09:43:40;;;;;;;;;;;15.90;51.10;;;14.53;54.17;99936.06;12249821;19;19915;-91
2023/03/25 09:48:01;;;;;;;;;;;15.80;51.10;;;14.41;53.88;99915.19;12254453;19;19911;-92
2023/03/25 09:52:03;;;;;;;;;;;15.80;50.80;;;14.44;53.90;99921.00;12264354;19;19910;-92
2023/03/25 09:56:11;;;;;;;;;;;15.80;51.00;;;14.50;53.91;99938.06;12260076;19;19929;-90
2023/03/25 10:00:17;;;;;;;;;;;15.80;51.00;;;14.47;53.96;99933.06;12256683;19;20253;-91
2023/03/25 10:04:41;;;;;;;;;;;15.80;51.00;;;14.51;53.93;99937.13;12261106;19;19915;-89
2023/03/25 10:09:01;;;;;;;;;;;15.80;51.20;;;14.51;53.87;99947.63;12262228;19;19919;-90
2023/03/25 10:13:33;;;;;;;;;;;15.80;51.20;;;14.42;53.81;99928.22;12263907;19;20311;-89
2023/03/25 10:17:44;;;;;;;;;;;15.80;51.10;;;14.50;53.95;99938.91;12259963;19;19943;-90
2023/03/25 10:22:01;;;;;;;;;;;15.80;51.10;;;14.46;53.95;99919.09;12260634;19;19919;-89
2023/03/25 10:26:11;;;;;;;;;;;15.80;51.00;;;14.53;53.86;99925.53;12259536;19;20340;-90
2023/03/25 10:30:31;;;;;;;;;;;15.80;50.90;;;14.67;53.65;99916.47;12258732;19;19974;-90
2023/03/25 10:34:48;;;;;;;;;;;15.90;51.00;;;14.76;53.93;99910.44;12260514;19;19916;-90
2023/03/25 10:38:53;;;;;;;;;;;15.90;50.80;;;14.85;53.69;99894.84;12252302;19;19923;-90
2023/03/25 10:43:25;;;;;;;;;;;16.10;50.30;;;15.01;53.98;99918.81;12259144;19;19918;-90
2023/03/25 10:47:32;;;;;;;;;;;16.20;50.50;;;15.03;53.85;99915.09;12257343;19;19911;-89
2023/03/25 10:51:34;;;;;;;;;;;16.30;50.20;;;15.05;53.83;99889.50;12259583;19;19919;-89
2023/03/25 10:55:40;;;;;;;;;;;16.40;50.20;;;15.17;53.83;99908.63;12260828;19;19907;-90
2023/03/25 10:59:59;;;;;;;;;;;16.50;49.50;;;15.26;53.56;99909.66;12249854;19;19934;-89
2023/03/25 11:04:03;;;;;;;;;;;16.50;49.00;;;15.19;53.54;99887.47;12257812;19;19914;-90
2023/03/25 11:08:08;;;;;;;;;;;16.60;50.00;;;15.30;53.88;99897.88;12251494;19;19915;-90
2023/03/25 11:12:10;;;;;;;;;;;16.60;50.00;;;15.29;53.58;99885.69;12256246;19;19970;-90
2023/03/25 11:16:12;;;;;;;;;;;16.70;50.30;;;15.39;53.56;99883.91;12256515;19;19978;-90
2023/03/25 11:20:21;;;;;;;;;;;16.70;49.50;;;15.41;53.61;99881.13;12254052;19;19928;-90
2023/03/25 11:24:26;;;;;;;;;;;16.80;49.90;;;15.21;53.53;99840.84;12256193;19;19922;-90
2023/03/25 11:28:44;;;;;;;;;;;16.80;49.70;;;15.55;53.39;99895.69;12253220;19;19919;-90
2023/03/25 11:32:58;;;;;;;;;;;16.80;49.20;;;15.54;53.42;99886.97;12256414;19;20262;-90
2023/03/25 11:37:05;;;;;;;;;;;16.80;49.40;;;15.61;53.39;99889.91;12255799;19;19915;-90
2023/03/25 11:41:06;;;;;;;;;;;16.90;49.30;;;15.48;53.36;99866.47;12251846;19;19921;-88
2023/03/25 11:45:20;;;;;;;;;;;16.90;49.20;;;15.46;53.50;99842.91;12254847;19;19910;-90
2023/03/25 11:49:23;;;;;;;;;;;16.90;49.70;;;15.55;53.46;99843.88;12249639;19;20355;-90
2023/03/25 11:53:26;;;;;;;;;;;16.90;49.60;;;15.80;53.54;99866.25;12253866;19;19994;-90
2023/03/25 11:57:33;;;;;;;;;;;17.10;49.60;;;15.88;53.39;99855.84;12252523;19;19911;-90
2023/03/25 12:01:44;;;;;;;;;;;17.10;49.60;;;15.97;53.33;99853.34;12248843;19;19937;-91
2023/03/25 12:06:19;;;;;;;;;;;17.20;49.40;;;16.04;53.34;99870.22;12252239;19;19943;-91
2023/03/25 12:10:30;;;;;;;;;;;17.30;49.60;;;16.04;53.24;99868.44;12256377;19;20264;-90
2023/03/25 12:14:41;;;;;;;;;;;17.30;49.40;;;16.04;53.29;99860.53;12253856;19;19915;-91
2023/03/25 12:19:01;;;;;;;;;;;17.30;49.60;;;16.04;53.23;99864.94;12245372;19;19954;-89
2023/03/25 12:23:13;;;;;;;;;;;17.30;48.80;;;15.98;53.07;99844.44;12254953;19;19974;-88
2023/03/25 12:27:41;;;;;;;;;;;17.30;48.80;;;15.84;53.00;99829.91;12251812;19;19918;-88
2023/03/25 12:31:49;;;;;;;;;;;17.30;49.00;;;15.92;53.13;99846.66;12264771;19;19915;-89
2023/03/25 12:36:18;;;;;;;;;;;17.20;48.90;;;15.97;52.95;99851.53;12252876;19;19939;-89
2023/03/25 12:40:38;;;;;;;;;;;17.20;48.90;;;16.01;52.90;99839.72;12254020;19;19934;-89
2023/03/25 12:45:12;;;;;;;;;;;17.20;49.40;;;16.07;53.06;99839.19;12257551;19;19975;-90
2023/03/25 12:49:23;;;;;;;;;;;17.30;49.00;;;16.07;52.86;99840.97;12244417;19;19975;-90
2023/03/25 12:53:45;;;;;;;;;;;17.30;49.60;;;16.05;52.77;99838.47;12250844;19;19982;-90
2023/03/25 12:58:00;;;;;;;;;;;17.30;49.30;;;15.88;52.91;99820.78;12252311;19;19947;-90
2023/03/25 13:02:29;;;;;;;;;;;17.30;49.50;;;15.91;52.65;99833.66;12254035;19;19934;-89
2023/03/25 13:06:52;;;;;;;;;;;17.20;49.50;;;15.87;52.85;99817.28;12253424;19;19929;-90
2023/03/25 13:11:08;;;;;;;;;;;17.10;49.60;;;15.86;52.55;99799.84;12254399;19;19922;-89
2023/03/25 13:15:30;;;;;;;;;;;17.10;49.80;;;15.98;52.62;99789.16;12252863;19;20332;-90
2023/03/25 13:19:35;;;;;;;;;;;17.10;49.40;;;16.06;52.82;99794.53;12248095;19;19922;-89
2023/03/25 13:23:38;;;;;;;;;;;17.20;49.70;;;16.12;52.72;99799.22;12251972;19;19915;-89
2023/03/25 13:27:41;;;;;;;;;;;17.30;49.60;;;16.11;52.48;99800.19;12247936;19;19915;-90
2023/03/25 13:31:45;;;;;;;;;;;17.30;49.10;;;16.13;52.67;99800.91;12252044;19;19911;-90
2023/03/25 13:35:52;;;;;;;;;;;17.30;49.10;;;16.06;52.42;99795.34;12253137;19;19942;-89
2023/03/25 13:40:13;;;;;;;;;;;17.40;49.20;;;16.14;52.57;99802.53;12247504;19;19934;-90
2023/03/25 13:44:17;;;;;;;;;;;17.40;49.30;;;16.23;52.64;99800.84;12251966;19;19934;-89
2023/03/25 13:48:25;;;;;;;;;;;17.40;49.20;;;16.01;52.70;99770.41;12247994;19;19961;-89
2023/03/25 13:52:32;;;;;;;;;;;17.40;49.00;;;16.16;52.40;99800.59;12252476;19;19917;-90
2023/03/25 13:57:38;;;;;;;;;;;17.40;49.30;;;16.20;52.46;99840.66;12250008;19;19922;-90
2023/03/25 14:02:11;;;;;;;;;;;17.40;48.90;;;16.10;52.29;99851.22;12241639;19;19919;-89
2023/03/25 14:06:24;;;;;;;;;;;17.30;49.60;;;15.94;52.38;99864.97;12247031;19;19915;-89
2023/03/25 14:10:40;;;;;;;;;;;17.20;49.70;;;15.63;52.32;99936.13;12253001;19;19915;-89
2023/03/25 14:14:48;;;;;;;;;;;17.00;49.70;;;15.32;52.03;99937.22;12239770;19;19918;-92
2023/03/25 14:18:52;;;;;;;;;;;16.80;49.50;;;14.73;52.19;99894.94;12240898;19;19924;-90
2023/03/25 14:22:57;;;;;;;;;;;16.50;49.50;;;14.66;52.62;99882.44;12244650;19;19919;-90
2023/03/25 14:27:31;;;;;;;;;;;16.10;49.50;;;14.54;52.46;99873.81;12241895;19;20333;-90
2023/03/25 14:31:32;;;;;;;;;;;15.80;49.80;;;14.39;52.40;99847.03;12248796;19;19938;-91
2023/03/25 14:35:36;;;;;;;;;;;15.60;50.10;;;14.41;52.34;99858.25;12254252;19;19927;-90
2023/03/25 14:39:38;;;;;;;;;;;15.50;50.30;;;14.25;52.22;99844.75;12259599;19;19986;-89
2023/03/25 14:43:51;;;;;;;;;;;15.40;50.50;;;14.24;52.37;99846.53;12263822;19;19925;-89
2023/03/25 14:47:53;;;;;;;;;;;15.20;50.60;;;14.25;52.23;99853.44;12236900;19;19927;-89
2023/03/25 14:51:58;;;;;;;;;;;15.20;50.80;;;14.23;52.38;99850.16;12262079;19;19919;-89
2023/03/25 14:56:01;;;;;;;;;;;15.20;50.90;;;14.17;52.27;99835.72;12255065;19;19929;-88
2023/03/25 15:00:16;;;;;;;;;;;15.20;51.10;;;14.22;52.31;99837.13;12257327;19;19915;-90
2023/03/25 15:04:18;;;;;;;;;;;15.20;51.20;;;14.27;52.38;99838.41;12258439;19;19915;-89
2023/03/25 15:08:26;;;;;;;;;;;15.20;51.40;;;14.28;52.40;99828.72;12255769;19;19907;-89
2023/03/25 15:12:27;;;;;;;;;;;15.20;51.60;;;13.98;52.47;99777.84;12257320;19;19929;-89
2023/03/25 15:16:44;;;;;;;;;;;15.20;51.80;;;14.08;52.46;99786.63;12252474;19;19923;-89
2023/03/25 15:20:46;;;;;;;;;;;15.30;51.70;;;14.14;52.39;99787.88;12255793;19;20336;-89
2023/03/25 15:24:50;;;;;;;;;;;15.30;51.80;;;14.25;52.49;99795.69;12254573;19;19915;-89
2023/03/25 15:29:03;;;;;;;;;;;15.30;51.90;;;14.27;52.58;99790.31;12252589;19;19923;-88
2023/03/25 15:33:32;;;;;;;;;;;15.40;51.80;;;14.37;52.66;99801.69;12256942;19;19927;-89
2023/03/25 15:37:55;;;;;;;;;;;15.40;51.70;;;14.38;52.57;99803.34;12253628;19;19986;-88
2023/03/25 15:42:24;;;;;;;;;;;15.40;51.80;;;14.38;52.65;99800.72;12255694;19;19923;-89
2023/03/25 15:46:41;;;;;;;;;;;15.40;51.60;;;14.38;52.64;99806.78;12251571;19;19947;-87
2023/03/25 15:51:01;;;;;;;;;;;15.40;51.50;;;14.38;52.62;99808.59;12250516;19;19919;-87
2023/03/25 15:55:11;;;;;;;;;;;15.40;51.50;;;14.28;52.69;99787.53;12247684;19;19919;-87
2023/03/25 15:59:28;;;;;;;;;;;15.40;51.50;;;14.41;52.76;99808.34;12249494;19;19921;-87
2023/03/25 16:03:33;;;;;;;;;;;15.50;51.40;;;14.37;52.61;99794.63;12252825;19;19918;-88
2023/03/25 16:07:34;;;;;;;;;;;15.50;51.40;;;14.10;52.69;99750.56;12246140;19;20291;-87
2023/03/25 16:11:42;;;;;;;;;;;15.50;51.30;;;14.40;52.49;99806.69;12248253;19;19922;-88
2023/03/25 16:15:44;;;;;;;;;;;15.50;51.20;;;14.24;52.53;99780.91;12245784;19;20288;-87
2023/03/25 16:19:54;;;;;;;;;;;15.50;51.10;;;14.39;52.65;99812.88;12243758;19;20359;-88
2023/03/25 16:23:58;;;;;;;;;;;15.50;51.10;;;14.36;52.69;99813.97;12248071;19;19938;-87
2023/03/25 16:28:00;;;;;;;;;;;15.50;51.10;;;14.30;52.51;99816.31;12242815;19;20276;-87
2023/03/25 16:32:03;;;;;;;;;;;15.40;51.00;;;14.28;52.69;99832.19;12247923;19;19922;-87
2023/03/25 16:36:08;;;;;;;;;;;15.40;51.00;;;14.30;52.61;99834.69;12249207;19;19919;-88
2023/03/25 16:40:15;;;;;;;;;;;15.40;50.90;;;14.19;52.58;99819.00;12242907;19;19911;-88
2023/03/25 16:44:22;;;;;;;;;;;15.40;51.00;;;13.91;52.70;99792.47;12241362;19;19918;-88
2023/03/25 16:48:35;;;;;;;;;;;15.40;50.90;;;14.24;52.82;99877.22;12243242;19;20268;-87
2023/03/25 16:52:37;;;;;;;;;;;15.30;51.00;;;14.00;52.67;99856.50;12250432;19;19926;-88
2023/03/25 16:56:39;;;;;;;;;;;15.30;51.20;;;14.04;52.57;99856.13;12248494;19;19940;-88
2023/03/25 17:00:42;;;;;;;;;;;15.20;51.20;;;13.87;52.57;99835.66;12248243;19;19919;-88
2023/03/25 17:04:43;;;;;;;;;;;15.10;51.30;;;13.74;52.68;99817.47;12247329;19;19953;-87
2023/03/25 17:08:49;;;;;;;;;;;15.10;51.50;;;13.94;52.65;99855.22;12244927;19;19927;-88
2023/03/25 17:13:07;;;;;;;;;;;15.00;51.50;;;13.89;52.55;99841.63;12245861;19;19915;-87
2023/03/25 17:17:34;;;;;;;;;;;15.00;51.70;;;13.91;52.62;99855.47;12245450;19;20658;-88
2023/03/25 17:21:39;;;;;;;;;;;15.00;51.60;;;13.86;52.68;99861.09;12242244;19;19915;-87
2023/03/25 17:26:04;;;;;;;;;;;15.00;51.80;;;13.90;52.69;99859.03;12247191;19;19907;-87
2023/03/25 17:30:32;;;;;;;;;;;15.00;51.90;;;13.79;52.79;99838.94;12246358;19;19915;-87
2023/03/25 17:34:41;;;;;;;;;;;14.90;51.70;;;13.82;52.67;99843.91;12246772;19;19919;-90
2023/03/25 17:38:45;;;;;;;;;;;14.90;51.80;;;13.70;52.63;99837.91;12243029;19;19946;-87
2023/03/25 17:42:46;;;;;;;;;;;14.90;51.80;;;13.65;52.69;99834.00;12246314;19;19926;-88
2023/03/25 17:46:48;;;;;;;;;;;14.90;51.80;;;13.78;52.81;99860.06;12247308;19;20380;-87
2023/03/25 17:50:54;;;;;;;;;;;14.80;52.00;;;13.62;52.66;99848.19;12245888;19;20023;-87
2023/03/25 17:54:56;;;;;;;;;;;14.80;51.90;;;13.60;52.76;99857.97;12246014;19;19982;-87
2023/03/25 17:58:59;;;;;;;;;;;14.80;52.00;;;13.62;52.71;99871.81;12240325;19;19949;-87
2023/03/25 18:03:00;;;;;;;;;;;14.80;52.00;;;13.65;52.87;99875.97;12245575;19;19971;-87
2023/03/25 18:07:02;;;;;;;;;;;14.80;52.00;;;13.61;52.79;99859.66;12242733;19;19931;-87
2023/03/25 18:11:04;;;;;;;;;;;14.80;52.00;;;13.70;52.88;99868.56;12250034;19;19938;-87
2023/03/25 18:15:06;;;;;;;;;;;14.80;52.40;;;13.57;52.87;99852.97;12257180;19;19954;-87
2023/03/25 18:19:17;;;;;;;;;;;14.80;52.10;;;13.64;52.88;99867.28;12253683;19;19911;-87
2023/03/25 18:23:19;;;;;;;;;;;14.70;52.00;;;13.62;52.92;99865.75;12254794;19;19918;-87
2023/03/25 18:27:20;;;;;;;;;;;14.70;52.00;;;13.55;52.88;99849.66;12255319;19;19918;-87
2023/03/25 18:31:22;;;;;;;;;;;14.70;52.00;;;13.41;52.88;99831.59;12256495;19;19951;-87
2023/03/25 18:35:23;;;;;;;;;;;14.70;52.00;;;13.54;53.07;99868.97;12255390;19;19933;-87
2023/03/25 18:39:26;;;;;;;;;;;14.60;52.00;;;13.40;52.91;99843.06;12248506;19;19914;-87
2023/03/25 18:43:27;;;;;;;;;;;14.70;52.00;;;13.23;52.88;99816.38;12255326;19;19922;-87
2023/03/25 18:47:29;;;;;;;;;;;14.70;52.00;;;13.45;52.99;99851.38;12254999;19;19983;-87
2023/03/25 18:51:31;;;;;;;;;;;14.70;52.00;;;13.43;52.80;99869.03;12255816;19;19914;-87
2023/03/25 18:55:33;;;;;;;;;;;14.60;52.00;;;13.41;52.94;99863.06;12253691;19;19911;-87
2023/03/25 18:59:35;;;;;;;;;;;14.60;52.10;;;13.37;53.00;99864.28;12249390;19;19931;-88